sensor_id;sensor_type;location;lat;lon;timestamp;temperature;humidity
68439;SHT31;55421;51.600;5.718;2023-07-20T00:01:27;19.11;71.11
68439;SHT31;55421;51.600;5.718;2023-07-20T00:03:54;19.10;71.42
68439;SHT31;55421;51.600;5.718;2023-07-20T00:06:23;19.12;71.75
68439;SHT31;55421;51.600;5.718;2023-07-20T00:08:51;19.18;71.82
68439;SHT31;55421;51.600;5.718;2023-07-20T00:11:18;19.17;71.91
68439;SHT31;55421;51.600;5.718;2023-07-20T00:13:44;19.14;72.14
68439;SHT31;55421;51.600;5.718;2023-07-20T00:16:11;19.15;72.26
68439;SHT31;55421;51.600;5.718;2023-07-20T00:18:37;19.16;72.28
68439;SHT31;55421;51.600;5.718;2023-07-20T00:21:04;19.10;72.40
68439;SHT31;55421;51.600;5.718;2023-07-20T00:23:30;19.05;72.88
68439;SHT31;55421;51.600;5.718;2023-07-20T00:25:57;19.03;73.21
68439;SHT31;55421;51.600;5.718;2023-07-20T00:28:23;19.04;73.44
68439;SHT31;55421;51.600;5.718;2023-07-20T00:30:50;19.04;73.48
68439;SHT31;55421;51.600;5.718;2023-07-20T00:33:17;19.06;73.25
68439;SHT31;55421;51.600;5.718;2023-07-20T00:35:44;19.04;73.32
68439;SHT31;55421;51.600;5.718;2023-07-20T00:38:11;19.02;73.53
68439;SHT31;55421;51.600;5.718;2023-07-20T00:40:40;19.00;73.86
68439;SHT31;55421;51.600;5.718;2023-07-20T00:43:07;19.01;74.21
68439;SHT31;55421;51.600;5.718;2023-07-20T00:45:36;19.04;74.45
68439;SHT31;55421;51.600;5.718;2023-07-20T00:48:02;19.05;74.47
68439;SHT31;55421;51.600;5.718;2023-07-20T00:50:31;19.05;74.48
68439;SHT31;55421;51.600;5.718;2023-07-20T00:52:58;19.02;74.44
68439;SHT31;55421;51.600;5.718;2023-07-20T00:55:25;18.98;74.45
68439;SHT31;55421;51.600;5.718;2023-07-20T00:57:52;18.96;74.75
68439;SHT31;55421;51.600;5.718;2023-07-20T01:00:19;18.94;75.00
68439;SHT31;55421;51.600;5.718;2023-07-20T01:02:46;18.94;75.13
68439;SHT31;55421;51.600;5.718;2023-07-20T01:05:13;18.92;75.09
68439;SHT31;55421;51.600;5.718;2023-07-20T01:07:58;18.90;75.05
68439;SHT31;55421;51.600;5.718;2023-07-20T01:13:55;18.86;75.46
68439;SHT31;55421;51.600;5.718;2023-07-20T01:16:21;18.87;75.50
68439;SHT31;55421;51.600;5.718;2023-07-20T01:18:47;18.88;75.58
68439;SHT31;55421;51.600;5.718;2023-07-20T01:21:17;18.89;75.62
68439;SHT31;55421;51.600;5.718;2023-07-20T01:33:25;18.83;75.62
68439;SHT31;55421;51.600;5.718;2023-07-20T01:35:56;18.81;75.56
68439;SHT31;55421;51.600;5.718;2023-07-20T01:38:25;18.80;75.53
68439;SHT31;55421;51.600;5.718;2023-07-20T01:40:52;18.76;75.56
68439;SHT31;55421;51.600;5.718;2023-07-20T01:43:19;18.73;75.63
68439;SHT31;55421;51.600;5.718;2023-07-20T01:45:47;18.74;75.67
68439;SHT31;55421;51.600;5.718;2023-07-20T01:48:14;18.74;75.58
68439;SHT31;55421;51.600;5.718;2023-07-20T01:50:40;18.72;75.47
68439;SHT31;55421;51.600;5.718;2023-07-20T01:53:07;18.71;75.55
68439;SHT31;55421;51.600;5.718;2023-07-20T01:55:34;18.71;75.64
68439;SHT31;55421;51.600;5.718;2023-07-20T01:58:00;18.71;75.70
68439;SHT31;55421;51.600;5.718;2023-07-20T02:00:27;18.70;75.80
68439;SHT31;55421;51.600;5.718;2023-07-20T02:02:54;18.67;75.87
68439;SHT31;55421;51.600;5.718;2023-07-20T02:05:21;18.63;75.83
68439;SHT31;55421;51.600;5.718;2023-07-20T02:07:47;18.58;75.99
68439;SHT31;55421;51.600;5.718;2023-07-20T02:10:13;18.56;76.10
68439;SHT31;55421;51.600;5.718;2023-07-20T02:12:40;18.52;76.10
68439;SHT31;55421;51.600;5.718;2023-07-20T02:15:06;18.51;76.16
68439;SHT31;55421;51.600;5.718;2023-07-20T02:17:34;18.51;76.20
68439;SHT31;55421;51.600;5.718;2023-07-20T02:20:01;18.52;76.21
68439;SHT31;55421;51.600;5.718;2023-07-20T02:22:27;18.54;76.26
68439;SHT31;55421;51.600;5.718;2023-07-20T02:24:54;18.53;76.21
68439;SHT31;55421;51.600;5.718;2023-07-20T02:27:20;18.52;76.20
68439;SHT31;55421;51.600;5.718;2023-07-20T02:29:46;18.50;76.03
68439;SHT31;55421;51.600;5.718;2023-07-20T02:32:13;18.45;75.97
68439;SHT31;55421;51.600;5.718;2023-07-20T02:34:40;18.40;75.89
68439;SHT31;55421;51.600;5.718;2023-07-20T02:37:06;18.35;76.07
68439;SHT31;55421;51.600;5.718;2023-07-20T02:39:33;18.33;76.24
68439;SHT31;55421;51.600;5.718;2023-07-20T02:42:00;18.31;76.30
68439;SHT31;55421;51.600;5.718;2023-07-20T02:44:26;18.29;76.22
68439;SHT31;55421;51.600;5.718;2023-07-20T02:46:52;18.27;76.41
68439;SHT31;55421;51.600;5.718;2023-07-20T02:49:19;18.26;76.49
68439;SHT31;55421;51.600;5.718;2023-07-20T02:51:46;18.24;76.50
68439;SHT31;55421;51.600;5.718;2023-07-20T02:54:13;18.21;76.65
68439;SHT31;55421;51.600;5.718;2023-07-20T02:56:39;18.18;76.76
68439;SHT31;55421;51.600;5.718;2023-07-20T02:59:05;18.18;76.81
68439;SHT31;55421;51.600;5.718;2023-07-20T03:01:32;18.18;76.90
68439;SHT31;55421;51.600;5.718;2023-07-20T03:03:59;18.18;76.92
68439;SHT31;55421;51.600;5.718;2023-07-20T03:06:25;18.18;76.94
68439;SHT31;55421;51.600;5.718;2023-07-20T03:08:51;18.19;76.99
68439;SHT31;55421;51.600;5.718;2023-07-20T03:11:19;18.20;77.05
68439;SHT31;55421;51.600;5.718;2023-07-20T03:13:47;18.22;77.07
68439;SHT31;55421;51.600;5.718;2023-07-20T03:16:17;18.24;77.08
68439;SHT31;55421;51.600;5.718;2023-07-20T03:18:45;18.24;77.02
68439;SHT31;55421;51.600;5.718;2023-07-20T03:21:12;18.23;77.09
68439;SHT31;55421;51.600;5.718;2023-07-20T03:23:39;18.19;77.08
68439;SHT31;55421;51.600;5.718;2023-07-20T03:26:07;18.16;77.18
68439;SHT31;55421;51.600;5.718;2023-07-20T03:28:35;18.13;77.15
68439;SHT31;55421;51.600;5.718;2023-07-20T03:31:02;18.07;77.03
68439;SHT31;55421;51.600;5.718;2023-07-20T03:33:29;17.99;77.04
68439;SHT31;55421;51.600;5.718;2023-07-20T03:35:57;17.93;77.19
68439;SHT31;55421;51.600;5.718;2023-07-20T03:38:24;17.92;77.29
68439;SHT31;55421;51.600;5.718;2023-07-20T03:40:53;17.89;77.30
68439;SHT31;55421;51.600;5.718;2023-07-20T03:43:22;17.87;77.22
68439;SHT31;55421;51.600;5.718;2023-07-20T03:45:52;17.83;77.24
68439;SHT31;55421;51.600;5.718;2023-07-20T03:48:20;17.81;77.30
68439;SHT31;55421;51.600;5.718;2023-07-20T03:50:50;17.78;77.32
68439;SHT31;55421;51.600;5.718;2023-07-20T03:53:18;17.75;77.37
68439;SHT31;55421;51.600;5.718;2023-07-20T03:55:49;17.75;77.35
68439;SHT31;55421;51.600;5.718;2023-07-20T03:58:19;17.72;77.22
68439;SHT31;55421;51.600;5.718;2023-07-20T04:00:48;17.69;77.08
68439;SHT31;55421;51.600;5.718;2023-07-20T04:03:17;17.66;77.00
68439;SHT31;55421;51.600;5.718;2023-07-20T04:05:45;17.64;77.01
68439;SHT31;55421;51.600;5.718;2023-07-20T04:08:12;17.62;76.97
68439;SHT31;55421;51.600;5.718;2023-07-20T04:10:39;17.63;77.02
68439;SHT31;55421;51.600;5.718;2023-07-20T04:13:10;17.62;76.96
68439;SHT31;55421;51.600;5.718;2023-07-20T04:15:36;17.62;76.85
68439;SHT31;55421;51.600;5.718;2023-07-20T04:18:03;17.64;76.79
68439;SHT31;55421;51.600;5.718;2023-07-20T04:20:30;17.68;76.65
68439;SHT31;55421;51.600;5.718;2023-07-20T04:22:57;17.80;76.48
68439;SHT31;55421;51.600;5.718;2023-07-20T04:25:23;17.96;76.17
68439;SHT31;55421;51.600;5.718;2023-07-20T04:27:49;18.16;75.91
68439;SHT31;55421;51.600;5.718;2023-07-20T04:30:18;18.31;75.73
68439;SHT31;55421;51.600;5.718;2023-07-20T04:32:48;18.42;75.60
68439;SHT31;55421;51.600;5.718;2023-07-20T04:35:45;18.57;75.41
68439;SHT31;55421;51.600;5.718;2023-07-20T04:38:19;18.65;75.12
68439;SHT31;55421;51.600;5.718;2023-07-20T04:40:48;18.68;75.09
68439;SHT31;55421;51.600;5.718;2023-07-20T04:43:16;18.74;74.93
68439;SHT31;55421;51.600;5.718;2023-07-20T04:45:43;18.85;74.81
68439;SHT31;55421;51.600;5.718;2023-07-20T04:48:11;18.97;74.62
68439;SHT31;55421;51.600;5.718;2023-07-20T04:50:40;19.03;74.53
68439;SHT31;55421;51.600;5.718;2023-07-20T04:53:13;18.98;74.58
68439;SHT31;55421;51.600;5.718;2023-07-20T04:55:46;18.90;74.59
68439;SHT31;55421;51.600;5.718;2023-07-20T04:58:18;18.82;74.60
68439;SHT31;55421;51.600;5.718;2023-07-20T05:00:47;18.68;74.59
68439;SHT31;55421;51.600;5.718;2023-07-20T05:03:17;18.55;74.88
68439;SHT31;55421;51.600;5.718;2023-07-20T05:05:44;18.50;75.20
68439;SHT31;55421;51.600;5.718;2023-07-20T05:08:10;18.50;75.31
68439;SHT31;55421;51.600;5.718;2023-07-20T05:10:37;18.49;75.32
68439;SHT31;55421;51.600;5.718;2023-07-20T05:13:03;18.46;75.41
68439;SHT31;55421;51.600;5.718;2023-07-20T05:15:30;18.42;75.45
68439;SHT31;55421;51.600;5.718;2023-07-20T05:18:00;18.37;75.36
68439;SHT31;55421;51.600;5.718;2023-07-20T05:20:27;18.23;75.46
68439;SHT31;55421;51.600;5.718;2023-07-20T05:22:54;18.15;75.67
68439;SHT31;55421;51.600;5.718;2023-07-20T05:25:20;18.12;75.71
68439;SHT31;55421;51.600;5.718;2023-07-20T05:27:48;18.10;75.85
68439;SHT31;55421;51.600;5.718;2023-07-20T05:30:15;18.17;75.99
68439;SHT31;55421;51.600;5.718;2023-07-20T05:32:42;18.24;75.91
68439;SHT31;55421;51.600;5.718;2023-07-20T05:35:08;18.25;75.93
68439;SHT31;55421;51.600;5.718;2023-07-20T05:37:37;18.27;76.00
68439;SHT31;55421;51.600;5.718;2023-07-20T05:40:05;18.36;76.00
68439;SHT31;55421;51.600;5.718;2023-07-20T05:42:33;18.45;75.84
68439;SHT31;55421;51.600;5.718;2023-07-20T05:45:00;18.44;75.61
68439;SHT31;55421;51.600;5.718;2023-07-20T05:47:26;18.38;75.59
68439;SHT31;55421;51.600;5.718;2023-07-20T05:49:53;18.36;75.73
68439;SHT31;55421;51.600;5.718;2023-07-20T05:52:19;18.40;75.80
68439;SHT31;55421;51.600;5.718;2023-07-20T05:54:46;18.41;75.71
68439;SHT31;55421;51.600;5.718;2023-07-20T05:57:12;18.42;75.70
68439;SHT31;55421;51.600;5.718;2023-07-20T05:59:40;18.42;75.76
68439;SHT31;55421;51.600;5.718;2023-07-20T06:02:10;18.42;75.89
68439;SHT31;55421;51.600;5.718;2023-07-20T06:04:38;18.44;75.92
68439;SHT31;55421;51.600;5.718;2023-07-20T06:07:05;18.52;75.99
68439;SHT31;55421;51.600;5.718;2023-07-20T06:09:34;18.58;75.92
68439;SHT31;55421;51.600;5.718;2023-07-20T06:12:01;18.65;75.93
68439;SHT31;55421;51.600;5.718;2023-07-20T06:14:27;18.71;75.83
68439;SHT31;55421;51.600;5.718;2023-07-20T06:16:54;18.74;75.64
68439;SHT31;55421;51.600;5.718;2023-07-20T06:19:20;18.73;75.54
68439;SHT31;55421;51.600;5.718;2023-07-20T06:21:48;18.70;75.59
68439;SHT31;55421;51.600;5.718;2023-07-20T06:24:16;18.71;75.72
68439;SHT31;55421;51.600;5.718;2023-07-20T06:26:43;18.75;75.73
68439;SHT31;55421;51.600;5.718;2023-07-20T06:29:10;18.77;75.20
68439;SHT31;55421;51.600;5.718;2023-07-20T06:31:36;18.79;74.98
68439;SHT31;55421;51.600;5.718;2023-07-20T06:34:03;18.87;75.04
68439;SHT31;55421;51.600;5.718;2023-07-20T06:36:30;18.93;74.74
68439;SHT31;55421;51.600;5.718;2023-07-20T06:38:56;18.93;74.52
68439;SHT31;55421;51.600;5.718;2023-07-20T06:41:23;18.92;74.40
68439;SHT31;55421;51.600;5.718;2023-07-20T06:43:49;18.94;74.37
68439;SHT31;55421;51.600;5.718;2023-07-20T06:46:16;19.07;74.16
68439;SHT31;55421;51.600;5.718;2023-07-20T06:48:43;19.21;73.83
68439;SHT31;55421;51.600;5.718;2023-07-20T06:51:09;19.34;73.23
68439;SHT31;55421;51.600;5.718;2023-07-20T06:53:36;19.43;72.65
68439;SHT31;55421;51.600;5.718;2023-07-20T06:56:02;19.58;72.26
68439;SHT31;55421;51.600;5.718;2023-07-20T06:58:29;19.67;72.33
68439;SHT31;55421;51.600;5.718;2023-07-20T07:00:55;19.67;72.48
68439;SHT31;55421;51.600;5.718;2023-07-20T07:03:22;19.75;72.41
68439;SHT31;55421;51.600;5.718;2023-07-20T07:05:49;19.83;72.18
68439;SHT31;55421;51.600;5.718;2023-07-20T07:08:15;19.92;71.74
68439;SHT31;55421;51.600;5.718;2023-07-20T07:10:42;20.03;70.97
68439;SHT31;55421;51.600;5.718;2023-07-20T07:13:09;20.12;71.23
68439;SHT31;55421;51.600;5.718;2023-07-20T07:15:36;20.23;71.32
68439;SHT31;55421;51.600;5.718;2023-07-20T07:18:02;20.33;70.73
68439;SHT31;55421;51.600;5.718;2023-07-20T07:20:29;20.42;70.07
68439;SHT31;55421;51.600;5.718;2023-07-20T07:22:56;20.50;68.97
68439;SHT31;55421;51.600;5.718;2023-07-20T07:25:23;20.54;68.59
68439;SHT31;55421;51.600;5.718;2023-07-20T07:27:51;20.57;68.56
68439;SHT31;55421;51.600;5.718;2023-07-20T07:30:22;20.42;67.76
68439;SHT31;55421;51.600;5.718;2023-07-20T07:32:56;20.20;68.05
68439;SHT31;55421;51.600;5.718;2023-07-20T07:35:22;20.04;68.39
68439;SHT31;55421;51.600;5.718;2023-07-20T07:37:49;19.87;68.07
68439;SHT31;55421;51.600;5.718;2023-07-20T07:40:16;19.75;68.32
68439;SHT31;55421;51.600;5.718;2023-07-20T07:42:42;19.67;69.12
68439;SHT31;55421;51.600;5.718;2023-07-20T07:45:10;19.59;69.72
68439;SHT31;55421;51.600;5.718;2023-07-20T07:47:36;19.55;69.79
68439;SHT31;55421;51.600;5.718;2023-07-20T07:50:05;19.53;69.70
68439;SHT31;55421;51.600;5.718;2023-07-20T07:52:32;19.51;69.31
68439;SHT31;55421;51.600;5.718;2023-07-20T07:54:58;19.59;68.99
68439;SHT31;55421;51.600;5.718;2023-07-20T07:57:26;19.87;68.49
68439;SHT31;55421;51.600;5.718;2023-07-20T07:59:52;20.15;68.02
68439;SHT31;55421;51.600;5.718;2023-07-20T08:02:19;20.37;67.47
68439;SHT31;55421;51.600;5.718;2023-07-20T08:04:45;20.55;66.76
68439;SHT31;55421;51.600;5.718;2023-07-20T08:07:12;20.73;66.35
68439;SHT31;55421;51.600;5.718;2023-07-20T08:09:38;20.77;66.16
68439;SHT31;55421;51.600;5.718;2023-07-20T08:12:05;20.75;65.34
68439;SHT31;55421;51.600;5.718;2023-07-20T08:14:32;20.77;65.48
68439;SHT31;55421;51.600;5.718;2023-07-20T08:16:58;20.82;65.67
68439;SHT31;55421;51.600;5.718;2023-07-20T08:19:25;20.79;65.79
68439;SHT31;55421;51.600;5.718;2023-07-20T08:21:51;20.81;65.82
68439;SHT31;55421;51.600;5.718;2023-07-20T08:24:18;20.94;65.71
68439;SHT31;55421;51.600;5.718;2023-07-20T08:26:44;21.05;65.36
68439;SHT31;55421;51.600;5.718;2023-07-20T08:29:11;21.04;65.53
68439;SHT31;55421;51.600;5.718;2023-07-20T08:31:37;20.96;65.03
68439;SHT31;55421;51.600;5.718;2023-07-20T08:34:04;20.85;64.21
68439;SHT31;55421;51.600;5.718;2023-07-20T08:36:31;20.80;64.13
68439;SHT31;55421;51.600;5.718;2023-07-20T08:38:58;20.70;63.66
68439;SHT31;55421;51.600;5.718;2023-07-20T08:41:25;20.58;63.26
68439;SHT31;55421;51.600;5.718;2023-07-20T08:43:52;20.45;63.19
68439;SHT31;55421;51.600;5.718;2023-07-20T08:46:21;20.54;63.45
68439;SHT31;55421;51.600;5.718;2023-07-20T08:48:49;20.77;63.50
68439;SHT31;55421;51.600;5.718;2023-07-20T08:51:18;20.82;63.30
68439;SHT31;55421;51.600;5.718;2023-07-20T08:53:47;20.78;62.95
68439;SHT31;55421;51.600;5.718;2023-07-20T08:56:17;20.85;62.54
68439;SHT31;55421;51.600;5.718;2023-07-20T08:58:46;21.11;61.40
68439;SHT31;55421;51.600;5.718;2023-07-20T09:01:13;21.36;61.29
68439;SHT31;55421;51.600;5.718;2023-07-20T09:03:41;21.43;61.42
68439;SHT31;55421;51.600;5.718;2023-07-20T09:06:11;21.42;61.41
68439;SHT31;55421;51.600;5.718;2023-07-20T09:08:39;21.37;61.67
68439;SHT31;55421;51.600;5.718;2023-07-20T09:11:07;21.33;62.24
68439;SHT31;55421;51.600;5.718;2023-07-20T09:13:39;21.30;62.50
68439;SHT31;55421;51.600;5.718;2023-07-20T09:16:06;21.26;62.41
68439;SHT31;55421;51.600;5.718;2023-07-20T09:18:33;21.17;61.88
68439;SHT31;55421;51.600;5.718;2023-07-20T09:21:03;21.04;61.42
68439;SHT31;55421;51.600;5.718;2023-07-20T09:23:37;20.96;62.26
68439;SHT31;55421;51.600;5.718;2023-07-20T09:26:11;20.90;62.64
68439;SHT31;55421;51.600;5.718;2023-07-20T09:28:43;20.86;62.65
68439;SHT31;55421;51.600;5.718;2023-07-20T09:31:17;20.84;62.88
68439;SHT31;55421;51.600;5.718;2023-07-20T09:33:48;20.80;62.44
68439;SHT31;55421;51.600;5.718;2023-07-20T09:36:18;20.73;62.41
68439;SHT31;55421;51.600;5.718;2023-07-20T09:38:44;20.69;62.14
68439;SHT31;55421;51.600;5.718;2023-07-20T09:41:15;20.71;62.17
68439;SHT31;55421;51.600;5.718;2023-07-20T09:43:42;20.86;62.62
68439;SHT31;55421;51.600;5.718;2023-07-20T09:46:08;21.17;62.49
68439;SHT31;55421;51.600;5.718;2023-07-20T09:48:35;21.53;62.33
68439;SHT31;55421;51.600;5.718;2023-07-20T09:51:02;21.92;61.30
68439;SHT31;55421;51.600;5.718;2023-07-20T09:53:32;22.24;59.88
68439;SHT31;55421;51.600;5.718;2023-07-20T09:56:00;22.49;59.13
68439;SHT31;55421;51.600;5.718;2023-07-20T09:58:28;22.66;58.27
68439;SHT31;55421;51.600;5.718;2023-07-20T10:00:56;22.76;57.36
68439;SHT31;55421;51.600;5.718;2023-07-20T10:03:29;22.95;57.32
68439;SHT31;55421;51.600;5.718;2023-07-20T10:06:06;23.10;56.42
68439;SHT31;55421;51.600;5.718;2023-07-20T10:08:38;23.23;56.65
68439;SHT31;55421;51.600;5.718;2023-07-20T10:11:07;23.45;56.72
68439;SHT31;55421;51.600;5.718;2023-07-20T10:13:38;23.70;56.42
68439;SHT31;55421;51.600;5.718;2023-07-20T10:19:05;23.98;54.93
68439;SHT31;55421;51.600;5.718;2023-07-20T10:21:39;23.80;54.34
68439;SHT31;55421;51.600;5.718;2023-07-20T10:24:11;23.84;54.50
68439;SHT31;55421;51.600;5.718;2023-07-20T10:26:39;24.03;53.87
68439;SHT31;55421;51.600;5.718;2023-07-20T10:29:06;24.16;53.59
68439;SHT31;55421;51.600;5.718;2023-07-20T10:31:34;24.18;53.42
68439;SHT31;55421;51.600;5.718;2023-07-20T10:34:02;24.17;53.45
68439;SHT31;55421;51.600;5.718;2023-07-20T10:36:30;24.14;52.99
68439;SHT31;55421;51.600;5.718;2023-07-20T10:38:57;23.98;52.83
68439;SHT31;55421;51.600;5.718;2023-07-20T10:44:00;23.91;53.68
68439;SHT31;55421;51.600;5.718;2023-07-20T10:49:08;24.11;52.64
68439;SHT31;55421;51.600;5.718;2023-07-20T10:54:09;24.52;51.79
68439;SHT31;55421;51.600;5.718;2023-07-20T10:56:47;24.60;52.13
68439;SHT31;55421;51.600;5.718;2023-07-20T11:01:49;24.60;52.06
68439;SHT31;55421;51.600;5.718;2023-07-20T11:07:09;24.25;51.69
68439;SHT31;55421;51.600;5.718;2023-07-20T11:09:36;24.17;51.29
68439;SHT31;55421;51.600;5.718;2023-07-20T11:12:14;23.99;51.60
68439;SHT31;55421;51.600;5.718;2023-07-20T11:14:43;23.88;52.15
68439;SHT31;55421;51.600;5.718;2023-07-20T11:17:20;23.95;52.24
68439;SHT31;55421;51.600;5.718;2023-07-20T11:19:59;23.95;51.32
68439;SHT31;55421;51.600;5.718;2023-07-20T11:22:27;23.88;51.41
68439;SHT31;55421;51.600;5.718;2023-07-20T11:24:57;23.96;51.50
68439;SHT31;55421;51.600;5.718;2023-07-20T11:27:24;23.98;51.88
68439;SHT31;55421;51.600;5.718;2023-07-20T11:29:51;24.21;51.47
68439;SHT31;55421;51.600;5.718;2023-07-20T11:32:21;24.32;50.71
68439;SHT31;55421;51.600;5.718;2023-07-20T11:34:51;24.41;50.96
68439;SHT31;55421;51.600;5.718;2023-07-20T11:37:17;24.47;50.55
68439;SHT31;55421;51.600;5.718;2023-07-20T11:39:44;24.52;50.27
68439;SHT31;55421;51.600;5.718;2023-07-20T11:42:11;24.59;50.44
68439;SHT31;55421;51.600;5.718;2023-07-20T11:44:38;24.53;50.42
68439;SHT31;55421;51.600;5.718;2023-07-20T11:47:09;24.38;50.08
68439;SHT31;55421;51.600;5.718;2023-07-20T11:49:42;24.16;50.27
68439;SHT31;55421;51.600;5.718;2023-07-20T11:52:11;23.88;51.37
68439;SHT31;55421;51.600;5.718;2023-07-20T11:54:42;23.75;51.40
68439;SHT31;55421;51.600;5.718;2023-07-20T11:57:16;23.71;51.19
68439;SHT31;55421;51.600;5.718;2023-07-20T12:00:02;23.60;51.37
68439;SHT31;55421;51.600;5.718;2023-07-20T12:02:35;23.55;51.36
68439;SHT31;55421;51.600;5.718;2023-07-20T12:05:03;23.53;51.26
68439;SHT31;55421;51.600;5.718;2023-07-20T12:07:32;23.55;51.85
68439;SHT31;55421;51.600;5.718;2023-07-20T12:10:11;23.55;51.51
68439;SHT31;55421;51.600;5.718;2023-07-20T12:12:42;23.58;50.89
68439;SHT31;55421;51.600;5.718;2023-07-20T12:15:13;23.67;50.56
68439;SHT31;55421;51.600;5.718;2023-07-20T12:18:01;23.72;50.29
68439;SHT31;55421;51.600;5.718;2023-07-20T12:20:29;23.75;50.39
68439;SHT31;55421;51.600;5.718;2023-07-20T12:23:11;23.70;50.45
68439;SHT31;55421;51.600;5.718;2023-07-20T12:25:39;23.67;50.43
68439;SHT31;55421;51.600;5.718;2023-07-20T12:28:08;23.61;50.28
68439;SHT31;55421;51.600;5.718;2023-07-20T12:30:38;23.52;51.12
68439;SHT31;55421;51.600;5.718;2023-07-20T12:33:07;23.50;51.17
68439;SHT31;55421;51.600;5.718;2023-07-20T12:35:34;23.50;51.35
68439;SHT31;55421;51.600;5.718;2023-07-20T12:38:01;23.54;51.48
68439;SHT31;55421;51.600;5.718;2023-07-20T12:40:27;23.58;51.27
68439;SHT31;55421;51.600;5.718;2023-07-20T12:42:54;23.57;50.84
68439;SHT31;55421;51.600;5.718;2023-07-20T12:45:21;23.59;51.45
68439;SHT31;55421;51.600;5.718;2023-07-20T12:47:48;23.62;51.35
68439;SHT31;55421;51.600;5.718;2023-07-20T12:50:14;23.65;51.27
68439;SHT31;55421;51.600;5.718;2023-07-20T12:52:41;23.69;51.58
68439;SHT31;55421;51.600;5.718;2023-07-20T12:55:08;23.73;51.42
68439;SHT31;55421;51.600;5.718;2023-07-20T12:57:36;23.83;50.90
68439;SHT31;55421;51.600;5.718;2023-07-20T13:00:04;23.88;50.69
68439;SHT31;55421;51.600;5.718;2023-07-20T13:02:37;23.86;50.17
68439;SHT31;55421;51.600;5.718;2023-07-20T13:05:04;23.82;50.19
68439;SHT31;55421;51.600;5.718;2023-07-20T13:07:32;23.87;50.29
68439;SHT31;55421;51.600;5.718;2023-07-20T13:10:01;24.00;49.95
68439;SHT31;55421;51.600;5.718;2023-07-20T13:12:30;24.14;49.51
68439;SHT31;55421;51.600;5.718;2023-07-20T13:14:58;24.21;49.30
68439;SHT31;55421;51.600;5.718;2023-07-20T13:17:28;24.22;49.50
68439;SHT31;55421;51.600;5.718;2023-07-20T13:19:55;24.23;49.12
68439;SHT31;55421;51.600;5.718;2023-07-20T13:22:21;24.20;48.86
68439;SHT31;55421;51.600;5.718;2023-07-20T13:24:49;24.18;48.70
68439;SHT31;55421;51.600;5.718;2023-07-20T13:27:16;24.14;48.99
68439;SHT31;55421;51.600;5.718;2023-07-20T13:29:44;24.11;48.79
68439;SHT31;55421;51.600;5.718;2023-07-20T13:32:15;24.09;48.78
68439;SHT31;55421;51.600;5.718;2023-07-20T13:34:44;24.02;48.83
68439;SHT31;55421;51.600;5.718;2023-07-20T13:37:11;23.97;49.28
68439;SHT31;55421;51.600;5.718;2023-07-20T13:39:38;23.97;49.53
68439;SHT31;55421;51.600;5.718;2023-07-20T13:42:05;24.00;49.39
68439;SHT31;55421;51.600;5.718;2023-07-20T13:44:32;24.00;48.57
68439;SHT31;55421;51.600;5.718;2023-07-20T13:47:03;23.96;48.10
68439;SHT31;55421;51.600;5.718;2023-07-20T13:49:31;23.93;48.04
68439;SHT31;55421;51.600;5.718;2023-07-20T13:52:00;23.94;48.21
68439;SHT31;55421;51.600;5.718;2023-07-20T13:54:26;24.04;48.20
68439;SHT31;55421;51.600;5.718;2023-07-20T13:56:53;24.21;47.64
68439;SHT31;55421;51.600;5.718;2023-07-20T13:59:19;24.32;47.51
68439;SHT31;55421;51.600;5.718;2023-07-20T14:01:45;24.39;47.13
68439;SHT31;55421;51.600;5.718;2023-07-20T14:04:13;24.43;47.31
68439;SHT31;55421;51.600;5.718;2023-07-20T14:06:39;24.50;47.67
68439;SHT31;55421;51.600;5.718;2023-07-20T14:09:06;24.58;47.60
68439;SHT31;55421;51.600;5.718;2023-07-20T14:11:33;24.64;47.73
68439;SHT31;55421;51.600;5.718;2023-07-20T14:14:00;24.67;47.11
68439;SHT31;55421;51.600;5.718;2023-07-20T14:16:26;24.64;47.10
68439;SHT31;55421;51.600;5.718;2023-07-20T14:18:53;24.64;47.10
68439;SHT31;55421;51.600;5.718;2023-07-20T14:21:20;24.66;47.36
68439;SHT31;55421;51.600;5.718;2023-07-20T14:23:48;24.64;47.14
68439;SHT31;55421;51.600;5.718;2023-07-20T14:26:17;24.61;47.10
68439;SHT31;55421;51.600;5.718;2023-07-20T14:28:43;24.51;47.44
68439;SHT31;55421;51.600;5.718;2023-07-20T14:31:10;24.47;47.91
68439;SHT31;55421;51.600;5.718;2023-07-20T14:33:37;24.40;48.13
68439;SHT31;55421;51.600;5.718;2023-07-20T14:36:03;24.32;48.33
68439;SHT31;55421;51.600;5.718;2023-07-20T14:38:33;24.22;48.11
68439;SHT31;55421;51.600;5.718;2023-07-20T14:41:01;24.11;48.31
68439;SHT31;55421;51.600;5.718;2023-07-20T14:43:28;24.01;48.91
68439;SHT31;55421;51.600;5.718;2023-07-20T14:45:55;23.96;48.89
68439;SHT31;55421;51.600;5.718;2023-07-20T14:48:22;23.97;48.71
68439;SHT31;55421;51.600;5.718;2023-07-20T14:50:48;24.01;48.70
68439;SHT31;55421;51.600;5.718;2023-07-20T14:53:15;24.03;48.30
68439;SHT31;55421;51.600;5.718;2023-07-20T14:55:42;24.05;48.07
68439;SHT31;55421;51.600;5.718;2023-07-20T14:58:09;24.07;48.03
68439;SHT31;55421;51.600;5.718;2023-07-20T15:00:35;24.07;47.96
68439;SHT31;55421;51.600;5.718;2023-07-20T15:03:02;24.15;48.19
68439;SHT31;55421;51.600;5.718;2023-07-20T15:05:29;24.24;48.10
68439;SHT31;55421;51.600;5.718;2023-07-20T15:07:55;24.31;47.41
68439;SHT31;55421;51.600;5.718;2023-07-20T15:10:22;24.33;46.69
68439;SHT31;55421;51.600;5.718;2023-07-20T15:12:48;24.33;46.50
68439;SHT31;55421;51.600;5.718;2023-07-20T15:15:15;24.31;46.64
68439;SHT31;55421;51.600;5.718;2023-07-20T15:17:42;24.24;47.36
68439;SHT31;55421;51.600;5.718;2023-07-20T15:20:11;24.19;47.16
68439;SHT31;55421;51.600;5.718;2023-07-20T15:22:40;24.13;47.13
68439;SHT31;55421;51.600;5.718;2023-07-20T15:25:07;24.04;45.98
68439;SHT31;55421;51.600;5.718;2023-07-20T15:27:39;23.98;46.15
68439;SHT31;55421;51.600;5.718;2023-07-20T15:30:07;23.99;46.76
68439;SHT31;55421;51.600;5.718;2023-07-20T15:32:34;24.03;46.98
68439;SHT31;55421;51.600;5.718;2023-07-20T15:35:01;24.06;47.19
68439;SHT31;55421;51.600;5.718;2023-07-20T15:37:30;24.05;46.79
68439;SHT31;55421;51.600;5.718;2023-07-20T15:39:57;23.99;46.56
68439;SHT31;55421;51.600;5.718;2023-07-20T15:42:24;23.93;46.93
68439;SHT31;55421;51.600;5.718;2023-07-20T15:44:50;23.85;47.90
68439;SHT31;55421;51.600;5.718;2023-07-20T15:47:17;23.80;48.03
68439;SHT31;55421;51.600;5.718;2023-07-20T15:49:44;23.81;47.95
68439;SHT31;55421;51.600;5.718;2023-07-20T15:52:11;23.81;47.39
68439;SHT31;55421;51.600;5.718;2023-07-20T15:54:40;23.81;47.18
68439;SHT31;55421;51.600;5.718;2023-07-20T15:57:07;23.78;47.51
68439;SHT31;55421;51.600;5.718;2023-07-20T15:59:37;23.74;47.65
68439;SHT31;55421;51.600;5.718;2023-07-20T16:02:04;23.73;47.57
68439;SHT31;55421;51.600;5.718;2023-07-20T16:04:32;23.74;47.02